Time;durP1;ratioP1;P1;durP2;ratioP2;P2;SDS_P1;SDS_P2;PMS_P1;PMS_P2;Temp;Humidity;BMP_temperature;BMP_pressure;BME280_temperature;BME280_humidity;BME280_pressure;Samples;Min_cycle;Max_cycle;Signal;HPM_P1;HPM_P2
2024/04/22 00:01:50;;;;;;;13.35;6.50;;;282.30;2278.40;;;;;;5395336;26;19992;-76
2024/04/22 00:04:16;;;;;;;8.43;6.20;;;282.20;2278.40;;;;;;5402466;26;20000;-76
2024/04/22 00:06:45;;;;;;;9.88;6.68;;;282.20;2278.40;;;;;;5407343;26;20077;-77
2024/04/22 00:09:14;;;;;;;13.90;6.45;;;282.20;2278.40;;;;;;5391235;26;19996;-77
2024/04/22 00:11:40;;;;;;;9.75;6.93;;;282.10;2278.40;;;;;;5391767;26;20003;-76
2024/04/22 00:14:13;;;;;;;11.77;6.93;;;282.10;2278.40;;;;;;5398880;26;20027;-79
2024/04/22 00:16:40;;;;;;;12.00;6.93;;;281.90;2278.40;;;;;;5388952;26;20007;-77
2024/04/22 00:19:05;;;;;;;9.90;7.20;;;282.00;2278.40;;;;;;5402740;26;20011;-77
2024/04/22 00:21:31;;;;;;;10.43;6.45;;;282.00;2278.40;;;;;;5403800;26;20447;-77
2024/04/22 00:23:57;;;;;;;10.48;7.18;;;282.00;2278.40;;;;;;5409833;26;20011;-76
2024/04/22 00:26:23;;;;;;;12.82;7.70;;;282.00;2278.40;;;;;;5409284;26;20011;-77
2024/04/22 00:28:49;;;;;;;11.13;7.47;;;281.90;2278.40;;;;;;5413070;26;19999;-76
2024/04/22 00:31:15;;;;;;;13.95;7.60;;;281.80;2278.40;;;;;;5395489;26;20000;-76
2024/04/22 00:33:41;;;;;;;11.00;7.57;;;281.70;2278.40;;;;;;5399519;26;20016;-75
2024/04/22 00:36:07;;;;;;;13.90;7.70;;;281.70;2278.40;;;;;;5420095;26;20021;-77
2024/04/22 00:38:33;;;;;;;9.77;7.85;;;281.70;2278.40;;;;;;5418843;26;20319;-77
2024/04/22 00:40:59;;;;;;;12.43;6.68;;;281.70;2278.40;;;;;;5420334;26;19999;-77
2024/04/22 00:43:25;;;;;;;;;;;281.60;2278.40;;;;;;5421047;26;20004;-79
2024/04/22 00:45:52;;;;;;;12.43;7.80;;;281.60;2278.40;;;;;;5420373;26;20346;-79
2024/04/22 00:48:22;;;;;;;10.52;7.97;;;281.60;2278.40;;;;;;5420521;26;20086;-77
2024/04/22 00:50:49;;;;;;;10.70;7.55;;;256.90;2252.80;;;;;;5418368;26;20003;-78
2024/04/22 00:53:17;;;;;;;11.77;7.53;;;256.80;2252.80;;;;;;5420619;26;20004;-76
2024/04/22 00:55:44;;;;;;;11.00;6.97;;;256.70;2252.80;;;;;;5418284;26;20018;-79
2024/04/22 00:58:11;;;;;;;11.57;7.80;;;256.70;2252.80;;;;;;5416998;26;19995;-77
2024/04/22 01:00:39;;;;;;;11.15;7.20;;;256.70;2252.80;;;;;;5418054;26;20000;-77
2024/04/22 01:03:05;;;;;;;9.93;6.78;;;256.60;2252.80;;;;;;5418253;26;20007;-79
2024/04/22 01:05:32;;;;;;;11.90;7.30;;;256.50;2252.80;;;;;;5420009;26;20008;-77
2024/04/22 01:07:58;;;;;;;10.07;7.15;;;256.50;2252.80;;;;;;5420416;26;19992;-77
2024/04/22 01:10:26;;;;;;;11.63;7.38;;;256.50;2252.80;;;;;;5419842;26;20013;-77
2024/04/22 01:12:53;;;;;;;10.77;7.18;;;256.50;2252.80;;;;;;5412078;26;20020;-77
2024/04/22 01:15:18;;;;;;;12.13;6.38;;;256.60;2252.80;;;;;;5415207;26;20015;-78
2024/04/22 01:17:46;;;;;;;16.08;7.10;;;256.60;2252.80;;;;;;5420254;26;19995;-77
2024/04/22 01:20:13;;;;;;;9.50;6.90;;;256.50;2252.80;;;;;;5419932;26;20010;-77
2024/04/22 01:22:39;;;;;;;12.00;7.07;;;256.50;2252.80;;;;;;5420158;26;19999;-77
2024/04/22 01:25:06;;;;;;;10.05;6.75;;;256.40;2252.80;;;;;;5419336;26;20450;-78
2024/04/22 01:27:33;;;;;;;13.73;7.65;;;256.30;2252.80;;;;;;5419862;26;20006;-79
2024/04/22 01:30:00;;;;;;;13.90;6.97;;;256.20;2252.80;;;;;;5417632;26;20039;-77
2024/04/22 01:32:27;;;;;;;10.90;7.22;;;256.10;2252.80;;;;;;5417927;26;19999;-80
2024/04/22 01:34:57;;;;;;;16.25;7.53;;;231.30;2252.80;;;;;;5417647;26;20338;-77
2024/04/22 01:37:23;;;;;;;14.57;7.60;;;231.30;2252.80;;;;;;5419463;26;20005;-77
2024/04/22 01:39:49;;;;;;;10.32;6.85;;;231.20;2252.80;;;;;;5419841;26;20000;-77
2024/04/22 01:42:15;;;;;;;12.63;7.90;;;231.10;2252.80;;;;;;5419763;26;20010;-78
2024/04/22 01:44:41;;;;;;;11.93;8.15;;;231.10;2252.80;;;;;;5419276;26;19999;-79
2024/04/22 01:47:07;;;;;;;;;;;231.10;2252.80;;;;;;5420671;26;19995;-77
2024/04/22 01:49:32;;;;;;;18.23;8.93;;;231.20;2252.80;;;;;;5417404;26;19933;-79
2024/04/22 01:51:58;;;;;;;18.55;8.52;;;231.10;2252.80;;;;;;5419168;26;20003;-77
2024/04/22 01:54:24;;;;;;;;;;;231.00;2252.80;;;;;;5420205;26;20000;-77
2024/04/22 01:56:50;;;;;;;17.92;7.68;;;231.00;2252.80;;;;;;5417157;26;19971;-77
2024/04/22 01:59:16;;;;;;;;;;;230.90;2252.80;;;;;;5419584;26;20046;-77
2024/04/22 02:01:42;;;;;;;12.73;7.90;;;231.00;2252.80;;;;;;5417225;26;19924;-77
2024/04/22 02:04:09;;;;;;;28.15;8.35;;;231.10;2252.80;;;;;;5419201;26;20035;-78
2024/04/22 02:06:36;;;;;;;19.92;8.25;;;230.90;2252.80;;;;;;5419489;26;20004;-80
2024/04/22 02:09:02;;;;;;;13.25;7.88;;;230.90;2252.80;;;;;;5418974;26;20003;-77
2024/04/22 02:11:28;;;;;;;13.27;6.68;;;230.80;2252.80;;;;;;5419084;26;20068;-77
2024/04/22 02:13:54;;;;;;;12.60;7.95;;;230.80;2252.80;;;;;;5419370;26;19991;-77
2024/04/22 02:16:19;;;;;;;13.50;8.30;;;230.80;2252.80;;;;;;5419259;26;20011;-79
2024/04/22 02:18:45;;;;;;;15.15;8.23;;;230.70;2252.80;;;;;;5418655;26;20447;-77
2024/04/22 02:21:11;;;;;;;13.98;9.27;;;230.60;2252.80;;;;;;5419176;26;20006;-78
2024/04/22 02:23:37;;;;;;;9.90;6.40;;;230.50;2252.80;;;;;;5418923;26;20006;-76
2024/04/22 02:26:03;;;;;;;13.95;8.15;;;230.40;2252.80;;;;;;5418445;26;20011;-79
2024/04/22 02:28:29;;;;;;;13.98;8.50;;;230.40;2252.80;;;;;;5417117;26;20082;-78
2024/04/22 02:30:55;;;;;;;14.55;7.60;;;230.40;2252.80;;;;;;5418715;26;19999;-76
2024/04/22 02:33:22;;;;;;;17.83;9.10;;;205.70;2252.80;;;;;;5418708;26;20431;-79
2024/04/22 02:35:48;;;;;;;13.60;8.18;;;205.70;2252.80;;;;;;5418911;26;20019;-78
2024/04/22 02:38:16;;;;;;;16.00;7.97;;;205.70;2252.80;;;;;;5419282;26;19992;-79
2024/04/22 02:40:42;;;;;;;11.90;7.05;;;205.70;2252.80;;;;;;5411105;26;20000;-79
2024/04/22 02:43:08;;;;;;;14.20;8.18;;;230.40;2252.80;;;;;;5411022;26;20011;-79
2024/04/22 02:45:34;;;;;;;12.60;7.60;;;230.40;2252.80;;;;;;5406705;26;19999;-78
2024/04/22 02:48:00;;;;;;;;;;;230.50;2252.80;;;;;;5416364;26;20018;-78
2024/04/22 02:50:25;;;;;;;15.75;7.32;;;230.50;2252.80;;;;;;5418980;26;19925;-79
2024/04/22 02:52:51;;;;;;;15.27;7.85;;;230.50;2252.80;;;;;;5418881;26;19995;-76
2024/04/22 02:55:17;;;;;;;12.75;7.28;;;230.40;2252.80;;;;;;5418543;26;20004;-78
2024/04/22 02:57:43;;;;;;;14.88;7.65;;;205.70;2252.80;;;;;;5418364;26;20366;-78
2024/04/22 03:00:10;;;;;;;14.75;8.82;;;230.50;2252.80;;;;;;5416162;26;19996;-78
2024/04/22 03:02:37;;;;;;;14.43;7.65;;;205.70;2252.80;;;;;;5418652;26;19996;-78
2024/04/22 03:05:06;;;;;;;10.75;7.20;;;205.70;2252.80;;;;;;5418378;26;20007;-78
2024/04/22 03:07:32;;;;;;;13.32;8.20;;;205.60;2252.80;;;;;;5418451;26;19995;-76
2024/04/22 03:09:57;;;;;;;12.38;7.15;;;205.60;2252.80;;;;;;5418410;26;20338;-77
2024/04/22 03:12:23;;;;;;;12.48;7.57;;;205.60;2252.80;;;;;;5410414;26;20031;-77
2024/04/22 03:14:49;;;;;;;13.25;8.48;;;205.60;2252.80;;;;;;5406680;26;19999;-78
2024/04/22 03:17:15;;;;;;;14.68;8.00;;;205.50;2252.80;;;;;;5410370;26;19996;-77
2024/04/22 03:19:41;;;;;;;12.32;7.40;;;205.50;2252.80;;;;;;5399041;26;20000;-79
2024/04/22 03:22:06;;;;;;;16.00;7.72;;;205.50;2252.80;;;;;;5418766;26;19996;-79
2024/04/22 03:24:32;;;;;;;;;;;205.50;2252.80;;;;;;5418770;26;20080;-79
2024/04/22 03:26:58;;;;;;;13.75;6.93;;;205.40;2252.80;;;;;;5415964;26;20359;-76
2024/04/22 03:29:24;;;;;;;14.00;7.55;;;205.30;2252.80;;;;;;5418612;26;19992;-77
2024/04/22 03:31:49;;;;;;;;;;;205.30;2252.80;;;;;;5418357;26;19996;-79
2024/04/22 03:34:15;;;;;;;13.00;7.53;;;205.20;2252.80;;;;;;5416331;26;19925;-77
2024/04/22 03:36:42;;;;;;;;;;;205.20;2252.80;;;;;;5418729;26;20011;-76
2024/04/22 03:39:08;;;;;;;11.07;7.18;;;205.10;2252.80;;;;;;5416254;26;19925;-77
2024/04/22 03:41:34;;;;;;;12.05;7.10;;;205.00;2252.80;;;;;;5416123;26;20443;-77
2024/04/22 03:43:59;;;;;;;;;;;205.00;2252.80;;;;;;5418886;26;20041;-79
2024/04/22 03:51:53;;;;;;;14.13;8.43;;;205.00;2252.80;;;;;;5418051;26;20018;-78
2024/04/22 03:54:19;;;;;;;13.90;9.93;;;204.90;2252.80;;;;;;5416953;26;19999;-77
2024/04/22 03:56:45;;;;;;;10.85;7.68;;;205.00;2252.80;;;;;;5410139;26;20018;-76
2024/04/22 03:59:11;;;;;;;;;;;204.90;2252.80;;;;;;5413894;26;20325;-77
2024/04/22 04:01:36;;;;;;;16.45;8.65;;;204.90;2252.80;;;;;;5417324;26;20146;-78
2024/04/22 04:04:02;;;;;;;;;;;204.90;2252.80;;;;;;5417574;26;19992;-76
2024/04/22 04:06:28;;;;;;;13.73;8.68;;;204.90;2252.80;;;;;;5417636;26;19925;-77
2024/04/22 04:08:54;;;;;;;13.70;8.35;;;204.90;2252.80;;;;;;5417325;26;20436;-77
2024/04/22 04:11:25;;;;;;;;;;;205.00;2252.80;;;;;;5416173;26;19999;-78
2024/04/22 04:13:51;;;;;;;15.40;8.73;;;205.00;2252.80;;;;;;5417490;26;19925;-79
2024/04/22 04:16:17;;;;;;;12.43;8.05;;;205.20;2252.80;;;;;;5417353;26;20010;-77
2024/04/22 04:18:43;;;;;;;;;;;205.20;2252.80;;;;;;5417146;26;19999;-77
2024/04/22 04:21:09;;;;;;;12.38;8.13;;;205.20;2252.80;;;;;;5417399;26;20256;-79
2024/04/22 04:23:34;;;;;;;;;;;205.20;2252.80;;;;;;5417725;26;19992;-77
2024/04/22 04:26:01;;;;;;;14.05;8.50;;;205.20;2252.80;;;;;;5409462;26;19925;-78
2024/04/22 04:28:28;;;;;;;16.00;8.38;;;205.10;2252.80;;;;;;5413487;26;20001;-80
2024/04/22 04:30:57;;;;;;;13.15;7.97;;;205.10;2252.80;;;;;;5417332;26;20011;-78
2024/04/22 04:33:24;;;;;;;17.52;9.65;;;205.20;2252.80;;;;;;5417624;26;20003;-76
2024/04/22 04:36:07;;;;;;;13.52;8.25;;;205.20;2252.80;;;;;;5420474;26;20019;-78
2024/04/22 04:38:34;;;;;;;15.93;8.48;;;205.20;2252.80;;;;;;5418811;26;20440;-75
2024/04/22 04:41:00;;;;;;;14.57;8.43;;;205.20;2252.80;;;;;;5420005;26;20029;-76
2024/04/22 04:43:27;;;;;;;17.35;8.75;;;205.40;2252.80;;;;;;5418719;26;19996;-76
2024/04/22 04:45:53;;;;;;;12.50;8.23;;;205.30;2252.80;;;;;;5420505;26;20015;-79
2024/04/22 04:48:20;;;;;;;13.88;8.80;;;205.30;2252.80;;;;;;5418975;26;20011;-79
2024/04/22 04:50:46;;;;;;;15.60;9.23;;;205.30;2252.80;;;;;;5419922;26;20039;-78
2024/04/22 04:53:12;;;;;;;16.33;8.75;;;205.40;2252.80;;;;;;5419511;26;20007;-78
2024/04/22 04:55:38;;;;;;;12.05;8.57;;;205.50;2252.80;;;;;;5420263;26;19999;-79
2024/04/22 04:58:06;;;;;;;15.48;8.57;;;205.50;2252.80;;;;;;5419683;26;20077;-78
2024/04/22 05:00:32;;;;;;;14.30;8.88;;;205.50;2252.80;;;;;;5418093;26;20008;-79
2024/04/22 05:02:58;;;;;;;15.38;9.27;;;230.40;2252.80;;;;;;5418375;26;20019;-78
2024/04/22 05:05:24;;;;;;;16.13;9.57;;;205.30;2252.80;;;;;;5417418;26;20349;-77
2024/04/22 05:07:50;;;;;;;12.40;9.40;;;205.40;2252.80;;;;;;5412431;26;20028;-75
2024/04/22 05:10:17;;;;;;;14.23;9.13;;;205.50;2252.80;;;;;;5413915;26;20018;-76
2024/04/22 05:12:43;;;;;;;14.18;9.95;;;205.50;2252.80;;;;;;5418824;26;20003;-77
2024/04/22 05:15:09;;;;;;;16.30;10.15;;;205.50;2252.80;;;;;;5419837;26;19999;-76
2024/04/22 05:17:35;;;;;;;16.00;9.52;;;205.60;2252.80;;;;;;5419659;26;20508;-77
2024/04/22 05:20:01;;;;;;;15.43;9.45;;;205.60;2252.80;;;;;;5419975;26;20115;-75
2024/04/22 05:22:27;;;;;;;19.15;9.43;;;205.70;2252.80;;;;;;5419914;26;20011;-78
2024/04/22 05:24:53;;;;;;;16.13;10.02;;;230.40;2252.80;;;;;;5417880;26;20338;-77
2024/04/22 05:27:18;;;;;;;;;;;230.40;2252.80;;;;;;5419870;26;20449;-76
2024/04/22 05:29:44;;;;;;;16.13;9.57;;;205.70;2252.80;;;;;;5414514;26;19925;-75
2024/04/22 05:32:10;;;;;;;16.98;9.95;;;205.70;2252.80;;;;;;5399766;26;19995;-78
2024/04/22 05:37:20;;;;;;;14.90;9.27;;;205.70;2252.80;;;;;;5401934;26;20007;-77
2024/04/22 05:39:46;;;;;;;16.95;10.77;;;230.40;2252.80;;;;;;5410396;26;19999;-75
2024/04/22 05:42:11;;;;;;;15.90;9.80;;;230.40;2252.80;;;;;;5402739;26;20086;-76
2024/04/22 05:44:37;;;;;;;15.23;10.45;;;230.50;2252.80;;;;;;5397715;26;20135;-78
2024/04/22 05:47:03;;;;;;;17.35;9.57;;;230.60;2252.80;;;;;;5400188;26;20035;-77
2024/04/22 05:49:29;;;;;;;15.73;10.05;;;230.70;2252.80;;;;;;5402333;26;20023;-77
2024/04/22 05:51:55;;;;;;;16.25;9.55;;;230.80;2252.80;;;;;;5404829;26;20010;-76
2024/04/22 05:54:21;;;;;;;15.27;9.88;;;230.80;2252.80;;;;;;5392199;26;19996;-77
2024/04/22 05:56:48;;;;;;;18.45;11.15;;;230.90;2252.80;;;;;;5405163;26;20007;-75
2024/04/22 05:59:15;;;;;;;15.82;10.02;;;231.10;2252.80;;;;;;5414944;26;19995;-75
2024/04/22 06:01:41;;;;;;;19.60;11.85;;;;;;;;;;5398712;26;19999;-75
2024/04/22 06:04:07;;;;;;;13.75;9.35;;;231.10;2252.80;;;;;;5397028;26;20070;-75
2024/04/22 06:06:36;;;;;;;17.35;10.48;;;231.30;2252.80;;;;;;5394358;26;20015;-78
2024/04/22 06:09:03;;;;;;;15.88;10.18;;;256.10;2252.80;;;;;;5389853;26;20031;-76
2024/04/22 06:11:30;;;;;;;19.27;11.73;;;256.40;2252.80;;;;;;5401415;26;20000;-78
2024/04/22 06:13:56;;;;;;;17.50;10.65;;;256.30;2252.80;;;;;;5395991;26;20031;-79
2024/04/22 06:16:22;;;;;;;17.17;10.45;;;256.30;2252.80;;;;;;5407502;26;20431;-75
2024/04/22 06:18:48;;;;;;;16.88;11.30;;;256.30;2252.80;;;;;;5397211;26;20007;-76
2024/04/22 06:21:15;;;;;;;15.77;10.70;;;256.50;2252.80;;;;;;5404332;26;20000;-75
2024/04/22 06:23:42;;;;;;;17.02;10.93;;;256.50;2252.80;;;;;;5398346;26;20462;-75
2024/04/22 06:26:07;;;;;;;18.38;11.65;;;256.50;2252.80;;;;;;5387301;26;20138;-77
2024/04/22 06:28:34;;;;;;;15.60;10.25;;;256.70;2252.80;;;;;;5395703;26;20004;-76
2024/04/22 06:30:59;;;;;;;18.58;11.32;;;256.90;2252.80;;;;;;5407753;26;19992;-75
2024/04/22 06:33:29;;;;;;;18.45;11.02;;;281.80;2278.40;;;;;;5399218;26;20000;-76
2024/04/22 06:35:55;;;;;;;17.20;11.30;;;281.90;2278.40;;;;;;5399370;26;19999;-75
2024/04/22 06:38:22;;;;;;;19.40;10.93;;;282.00;2278.40;;;;;;5385587;26;20000;-76
2024/04/22 06:40:48;;;;;;;21.10;12.15;;;281.90;2278.40;;;;;;5390369;26;19988;-79
2024/04/22 06:43:14;;;;;;;16.55;11.18;;;282.10;2278.40;;;;;;5399891;26;20012;-76
2024/04/22 06:45:40;;;;;;;16.08;10.93;;;282.30;2278.40;;;;;;5409040;26;20036;-75
2024/04/22 06:48:06;;;;;;;16.67;10.18;;;282.50;2278.40;;;;;;5399541;26;20115;-76
2024/04/22 06:50:32;;;;;;;17.83;11.95;;;282.50;2278.40;;;;;;5399202;26;20439;-78
2024/04/22 06:52:58;;;;;;;16.30;11.15;;;282.50;2278.40;;;;;;5392402;26;20023;-74
2024/04/22 06:55:24;;;;;;;21.05;12.48;;;307.50;2304.00;;;;;;5398451;26;20010;-75
2024/04/22 06:57:50;;;;;;;17.52;11.57;;;307.40;2304.00;;;;;;5393182;26;19997;-77
2024/04/22 07:00:17;;;;;;;19.02;11.80;;;307.40;2304.00;;;;;;5397410;26;20011;-76
2024/04/22 07:02:43;;;;;;;17.05;12.13;;;307.70;2304.00;;;;;;5403508;26;20014;-80
2024/04/22 07:05:09;;;;;;;17.90;11.70;;;307.80;2304.00;;;;;;5402465;26;20446;-75
2024/04/22 07:07:35;;;;;;;16.08;10.48;;;307.90;2304.00;;;;;;5394010;26;20036;-79
2024/04/22 07:10:01;;;;;;;21.95;12.95;;;308.00;2304.00;;;;;;5408534;26;20417;-75
2024/04/22 07:12:27;;;;;;;18.63;11.82;;;332.80;2329.60;;;;;;5396330;26;20030;-77
2024/04/22 07:14:53;;;;;;;20.60;13.23;;;333.00;2329.60;;;;;;5391254;26;20000;-75
2024/04/22 07:17:19;;;;;;;16.45;12.10;;;333.20;2329.60;;;;;;5392282;26;20074;-80
2024/04/22 07:19:46;;;;;;;17.70;11.57;;;333.40;2329.60;;;;;;5399083;26;19995;-78
2024/04/22 07:22:12;;;;;;;17.13;11.73;;;333.50;2329.60;;;;;;5404596;26;19996;-77
2024/04/22 07:24:37;;;;;;;15.30;11.10;;;333.60;2329.60;;;;;;5389501;26;20421;-77
2024/04/22 07:27:04;;;;;;;19.67;12.10;;;333.60;2329.60;;;;;;5398333;26;20011;-77
2024/04/22 07:29:30;;;;;;;19.10;11.20;;;;;;;;;;5399689;26;20010;-78
2024/04/22 07:31:56;;;;;;;16.73;11.65;;;333.60;2329.60;;;;;;5397915;26;20004;-76
2024/04/22 07:34:22;;;;;;;18.08;11.50;;;333.70;2329.60;;;;;;5389258;26;20015;-77
2024/04/22 07:36:59;;;;;;;18.45;12.80;;;358.60;2329.60;;;;;;5394012;26;19992;-77
2024/04/22 07:39:25;;;;;;;;;;;358.70;2329.60;;;;;;5407845;26;20087;-77
2024/04/22 07:41:51;;;;;;;15.60;10.43;;;358.80;2329.60;;;;;;5392669;26;19925;-77
2024/04/22 07:44:16;;;;;;;15.05;10.90;;;359.00;2329.60;;;;;;5398382;26;20000;-77
2024/04/22 07:46:44;;;;;;;15.20;11.15;;;359.00;2329.60;;;;;;5387889;26;19999;-76
2024/04/22 07:49:10;;;;;;;16.60;11.70;;;359.00;2329.60;;;;;;5400543;26;20000;-76
2024/04/22 07:51:39;;;;;;;17.45;11.18;;;359.20;2329.60;;;;;;5399087;26;19992;-75
2024/04/22 07:54:05;;;;;;;17.42;11.55;;;359.20;2329.60;;;;;;5408658;26;20327;-76
2024/04/22 07:56:31;;;;;;;15.18;10.48;;;384.20;2329.60;;;;;;5401776;26;20003;-78
2024/04/22 07:58:57;;;;;;;17.52;11.43;;;384.50;2278.40;;;;;;5386303;26;19996;-76
2024/04/22 08:01:23;;;;;;;17.63;11.93;;;384.50;2329.60;;;;;;5386257;26;20012;-79
2024/04/22 08:03:49;;;;;;;17.23;11.90;;;384.40;2329.60;;;;;;5401370;26;20428;-76
2024/04/22 08:06:22;;;;;;;16.15;11.15;;;384.70;2329.60;;;;;;5391381;26;20019;-78
2024/04/22 08:08:48;;;;;;;16.30;11.55;;;384.40;2329.60;;;;;;5408887;26;20004;-76
2024/04/22 08:11:14;;;;;;;14.85;11.10;;;384.00;2329.60;;;;;;5395791;26;20406;-76
2024/04/22 08:13:40;;;;;;;15.82;9.43;;;384.90;2201.60;;;;;;5386350;26;20436;-75
2024/04/22 08:16:06;;;;;;;14.60;10.05;;;409.90;2201.60;;;;;;5391370;26;20004;-77
2024/04/22 08:18:33;;;;;;;12.95;9.43;;;410.30;2124.80;;;;;;5404672;26;20069;-76
2024/04/22 08:20:59;;;;;;;18.25;11.60;;;409.60;2099.20;;;;;;5387519;26;20008;-76
2024/04/22 08:23:26;;;;;;;18.50;11.43;;;384.40;2227.20;;;;;;5391926;26;20073;-78
2024/04/22 08:25:53;;;;;;;14.05;9.85;;;409.70;2150.40;;;;;;5392852;26;20047;-77
2024/04/22 08:28:19;;;;;;;14.52;10.55;;;410.00;2176.00;;;;;;5394819;26;20015;-74
2024/04/22 08:30:45;;;;;;;15.35;9.95;;;384.70;2201.60;;;;;;5405961;26;20003;-76
2024/04/22 08:33:10;;;;;;;14.77;9.93;;;410.00;2150.40;;;;;;5407337;26;20019;-77
2024/04/22 08:35:48;;;;;;;14.50;9.55;;;410.00;2099.20;;;;;;5392321;26;19988;-76
2024/04/22 08:38:14;;;;;;;13.98;10.23;;;409.60;2048.00;;;;;;5396690;26;21674;-77
2024/04/22 08:40:44;;;;;;;13.13;9.80;;;384.60;2099.20;;;;;;5410543;26;20000;-76
2024/04/22 08:43:13;;;;;;;12.63;9.70;;;410.00;2048.00;;;;;;5407095;26;20369;-78
2024/04/22 08:45:42;;;;;;;14.05;9.07;;;435.30;1996.80;;;;;;5392797;26;20433;-76
2024/04/22 08:48:09;;;;;;;13.60;10.15;;;435.30;1945.60;;;;;;5405772;26;20003;-78
2024/04/22 08:50:39;;;;;;;14.18;10.95;;;410.40;1945.60;;;;;;5406330;26;20306;-77
2024/04/22 08:53:07;;;;;;;16.75;11.15;;;435.50;1971.20;;;;;;5402474;26;20002;-75
2024/04/22 08:55:34;;;;;;;16.25;10.43;;;435.50;1945.60;;;;;;5404495;26;20000;-77
2024/04/22 08:58:00;;;;;;;15.52;11.15;;;435.70;1894.40;;;;;;5403152;26;20331;-77
2024/04/22 09:00:26;;;;;;;16.10;9.98;;;436.10;1868.80;;;;;;5417754;26;20003;-76
2024/04/22 09:02:52;;;;;;;18.30;8.95;;;410.40;1920.00;;;;;;5403739;26;20000;-79
2024/04/22 09:05:18;;;;;;;13.00;8.23;;;409.80;1894.40;;;;;;5394092;26;19996;-75
2024/04/22 09:07:51;;;;;;;12.23;9.15;;;435.50;1817.60;;;;;;5406601;26;19999;-76
2024/04/22 09:10:19;;;;;;;13.27;9.52;;;435.70;1843.20;;;;;;5399813;26;20014;-76
2024/04/22 09:12:57;;;;;;;17.20;10.40;;;435.30;1817.60;;;;;;5397111;26;20072;-79
2024/04/22 09:15:22;;;;;;;18.15;10.93;;;410.20;1945.60;;;;;;5403428;26;19995;-77
2024/04/22 09:17:48;;;;;;;15.38;10.52;;;409.70;1971.20;;;;;;5406166;26;20010;-78
2024/04/22 09:20:19;;;;;;;21.98;11.02;;;409.90;2022.40;;;;;;5400624;26;19999;-75
2024/04/22 09:22:45;;;;;;;12.65;8.88;;;410.40;1945.60;;;;;;5408053;26;19992;-79
2024/04/22 09:25:10;;;;;;;12.48;8.63;;;435.80;1817.60;;;;;;5404411;26;20073;-78
2024/04/22 09:27:38;;;;;;;19.25;12.15;;;460.90;1792.00;;;;;;5396953;26;20158;-75
2024/04/22 09:30:05;;;;;;;17.70;10.27;;;461.20;1766.40;;;;;;5386046;26;19997;-76
2024/04/22 09:32:35;;;;;;;14.52;10.27;;;435.90;1817.60;;;;;;5392861;26;19996;-77
2024/04/22 09:35:12;;;;;;;12.63;9.10;;;460.80;1843.20;;;;;;5407515;26;19995;-76
2024/04/22 09:37:39;;;;;;;12.07;8.75;;;461.40;1715.20;;;;;;5403178;26;20012;-76
2024/04/22 09:40:08;;;;;;;12.95;8.73;;;461.40;1664.00;;;;;;5400308;26;20039;-77
2024/04/22 09:42:34;;;;;;;14.80;9.48;;;486.40;1664.00;;;;;;5398727;26;20023;-78
2024/04/22 09:45:01;;;;;;;18.35;9.63;;;486.70;1715.20;;;;;;5402598;26;19996;-79
2024/04/22 09:47:28;;;;;;;11.65;8.35;;;461.30;1715.20;;;;;;5402691;26;20382;-79
2024/04/22 09:49:56;;;;;;;11.55;9.02;;;461.20;1715.20;;;;;;5408342;26;20431;-76
2024/04/22 09:52:22;;;;;;;12.25;9.90;;;461.50;1664.00;;;;;;5406889;26;20428;-76
2024/04/22 09:54:49;;;;;;;12.68;9.27;;;486.50;1664.00;;;;;;5405706;26;19996;-76
2024/04/22 09:57:17;;;;;;;11.95;8.80;;;461.10;1715.20;;;;;;5402708;26;20407;-76
2024/04/22 09:59:44;;;;;;;13.23;9.02;;;436.10;1715.20;;;;;;5398352;26;20452;-77
2024/04/22 10:02:10;;;;;;;12.25;7.78;;;435.80;1766.40;;;;;;5402874;26;20073;-78
2024/04/22 10:04:36;;;;;;;15.40;8.90;;;461.00;1715.20;;;;;;5400005;26;20004;-78
2024/04/22 10:07:03;;;;;;;11.63;8.20;;;461.70;1689.60;;;;;;5411487;26;19996;-77
2024/04/22 10:09:28;;;;;;;11.25;8.73;;;486.40;1612.80;;;;;;5409762;26;20010;-77
2024/04/22 10:11:54;;;;;;;11.77;9.50;;;486.50;1612.80;;;;;;5412769;26;20031;-77
2024/04/22 10:14:27;;;;;;;10.02;7.50;;;486.80;1587.20;;;;;;5409643;26;20003;-77
2024/04/22 10:16:55;;;;;;;11.18;8.23;;;487.20;1561.60;;;;;;5408342;26;20438;-76
2024/04/22 10:19:21;;;;;;;13.35;8.55;;;512.10;1561.60;;;;;;5395863;26;21201;-75
2024/04/22 10:21:50;;;;;;;11.30;7.80;;;512.00;1510.40;;;;;;5416357;26;20443;-76
2024/04/22 10:24:27;;;;;;;10.10;7.28;;;512.30;1459.20;;;;;;5418714;26;19991;-77
2024/04/22 10:26:55;;;;;;;10.18;7.93;;;512.30;1408.00;;;;;;5393065;26;20010;-75
2024/04/22 10:29:21;;;;;;;15.23;9.35;;;512.60;1484.80;;;;;;5416572;26;20000;-79
2024/04/22 10:31:47;;;;;;;9.40;8.07;;;487.30;1510.40;;;;;;5417013;26;20004;-77
2024/04/22 10:34:13;;;;;;;11.55;7.18;;;;;;;;;;5418982;26;20019;-76
2024/04/22 10:36:39;;;;;;;10.20;7.35;;;486.70;1536.00;;;;;;5418183;26;20008;-77
2024/04/22 10:39:05;;;;;;;9.02;6.95;;;512.30;1484.80;;;;;;5416872;26;19991;-76
2024/04/22 10:41:31;;;;;;;8.25;6.22;;;512.00;1433.60;;;;;;5410637;26;20000;-76
2024/04/22 10:43:57;;;;;;;9.70;6.78;;;512.40;1408.00;;;;;;5412972;26;20006;-78
2024/04/22 10:46:23;;;;;;;11.45;6.85;;;487.10;1433.60;;;;;;5416499;26;20003;-77
2024/04/22 10:48:50;;;;;;;10.38;7.40;;;487.00;1510.40;;;;;;5415982;26;20000;-76
2024/04/22 10:51:17;;;;;;;9.73;7.15;;;512.00;1433.60;;;;;;5410143;26;20436;-76
2024/04/22 10:53:42;;;;;;;10.05;7.28;;;512.00;1382.40;;;;;;5405816;26;20000;-76
2024/04/22 10:56:08;;;;;;;11.60;8.43;;;486.60;1433.60;;;;;;5417999;26;20014;-75
2024/04/22 10:58:34;;;;;;;13.55;9.45;;;486.40;1561.60;;;;;;5418134;26;20012;-75
2024/04/22 11:01:00;;;;;;;10.93;7.57;;;461.40;1664.00;;;;;;5410559;26;20448;-78
2024/04/22 11:03:27;;;;;;;9.95;7.22;;;487.00;1561.60;;;;;;5405737;26;20003;-76
2024/04/22 11:05:59;;;;;;;8.73;6.60;;;512.40;1459.20;;;;;;5417849;26;20018;-77
2024/04/22 11:08:26;;;;;;;9.82;7.03;;;537.60;1408.00;;;;;;5418002;26;20000;-78
2024/04/22 11:10:52;;;;;;;10.75;6.93;;;512.70;1433.60;;;;;;5418141;26;20008;-76
2024/04/22 11:13:18;;;;;;;9.27;7.43;;;487.10;1433.60;;;;;;5416127;26;19999;-76
2024/04/22 11:15:44;;;;;;;10.68;6.38;;;486.80;1433.60;;;;;;5417978;26;20042;-77
2024/04/22 11:18:10;;;;;;;8.35;6.32;;;486.70;1433.60;;;;;;5416113;26;19995;-77
2024/04/22 11:20:36;;;;;;;9.23;7.03;;;512.10;1459.20;;;;;;5417878;26;20012;-77
2024/04/22 11:23:02;;;;;;;11.10;8.15;;;512.70;1408.00;;;;;;5417733;26;20018;-78
2024/04/22 11:25:28;;;;;;;9.85;7.15;;;512.10;1356.80;;;;;;5416050;26;20405;-78
2024/04/22 11:27:54;;;;;;;9.82;7.25;;;486.80;1459.20;;;;;;5415076;26;20478;-77
2024/04/22 11:30:20;;;;;;;11.30;7.38;;;486.50;1510.40;;;;;;5418620;26;20003;-78
2024/04/22 11:32:46;;;;;;;11.13;7.07;;;461.50;1510.40;;;;;;5417627;26;20428;-77
2024/04/22 11:35:12;;;;;;;9.25;7.20;;;486.60;1510.40;;;;;;5417045;26;20424;-77
2024/04/22 11:37:38;;;;;;;11.23;6.82;;;512.00;1484.80;;;;;;5417247;26;20008;-77
2024/04/22 11:40:08;;;;;;;10.57;7.15;;;512.70;1459.20;;;;;;5410045;26;20000;-77
2024/04/22 11:42:33;;;;;;;8.93;6.03;;;512.50;1382.40;;;;;;5423099;26;19995;-77
2024/04/22 11:44:59;;;;;;;12.07;6.90;;;487.10;1408.00;;;;;;5423505;26;20063;-77
2024/04/22 11:47:28;;;;;;;10.68;7.40;;;487.20;1356.80;;;;;;5423674;26;20459;-77
2024/04/22 11:49:54;;;;;;;9.75;6.57;;;512.50;1331.20;;;;;;5425153;26;19992;-77
2024/04/22 11:52:20;;;;;;;13.10;8.40;;;512.10;1331.20;;;;;;5421887;26;20449;-77
2024/04/22 11:54:46;;;;;;;23.33;11.98;;;512.00;1356.80;;;;;;5425023;26;19995;-78
2024/04/22 11:57:12;;;;;;;21.92;12.95;;;487.20;1433.60;;;;;;5424621;26;20018;-77
2024/04/22 11:59:38;;;;;;;13.90;8.52;;;512.10;1433.60;;;;;;5425127;26;20316;-77
2024/04/22 12:02:04;;;;;;;11.57;8.00;;;487.20;1382.40;;;;;;5423164;26;20030;-76
2024/04/22 12:04:30;;;;;;;9.63;6.25;;;486.70;1459.20;;;;;;5424740;26;20435;-77
2024/04/22 12:06:55;;;;;;;9.60;5.78;;;486.60;1433.60;;;;;;5422275;26;20003;-76
2024/04/22 12:09:21;;;;;;;9.23;6.78;;;487.30;1331.20;;;;;;5422981;26;20340;-79
2024/04/22 12:11:47;;;;;;;9.90;5.78;;;512.10;1280.00;;;;;;5424475;26;20003;-75
2024/04/22 12:14:13;;;;;;;13.63;6.93;;;512.70;1280.00;;;;;;5400484;26;20065;-78
2024/04/22 12:16:39;;;;;;;16.48;9.30;;;512.90;1254.40;;;;;;5415095;26;20010;-78
2024/04/22 12:19:05;;;;;;;40.97;18.73;;;538.00;1280.00;;;;;;5417121;26;19996;-77